Time;durP1;ratioP1;P1;durP2;ratioP2;P2;SDS_P1;SDS_P2;PMS_P1;PMS_P2;Temp;Humidity;BMP_temperature;BMP_pressure;BME280_temperature;BME280_humidity;BME280_pressure;Samples;Min_cycle;Max_cycle;Signal;HPM_P1;HPM_P2
2022/12/16 00:00:07;;;;;;;;;;;;;;;11.65;67.98;100652.59;1267243;23;767;-67
2022/12/16 00:00:58;;;;;;;;;;;;;;;11.65;67.65;100653.47;1267237;23;666;-67
2022/12/16 00:01:48;;;;;;;;;;;;;;;11.64;67.67;100654.44;1265380;23;654;-67
2022/12/16 00:02:39;;;;;;;;;;;;;;;11.60;67.31;100650.28;1265718;23;638;-68
2022/12/16 00:03:29;;;;;;;;;;;;;;;11.61;67.74;100657.34;1265684;23;658;-67
2022/12/16 00:04:20;;;;;;;;;;;;;;;11.62;67.26;100648.38;1265815;23;662;-67
2022/12/16 00:05:10;;;;;;;;;;;;;;;11.61;67.95;100648.47;1265569;23;630;-68
2022/12/16 00:06:03;;;;;;;;;;;;;;;11.61;67.75;100656.47;1259296;23;697;-67
2022/12/16 00:06:53;;;;;;;;;;;;;;;11.62;66.99;100653.72;1260896;23;693;-68
2022/12/16 00:07:44;;;;;;;;;;;;;;;11.64;67.80;100653.59;1267265;23;673;-68
2022/12/16 00:08:34;;;;;;;;;;;;;;;11.61;67.82;100652.00;1265677;23;625;-67
2022/12/16 00:09:24;;;;;;;;;;;;;;;11.62;67.82;100658.19;1265873;23;653;-68
2022/12/16 00:10:15;;;;;;;;;;;;;;;11.62;67.13;100663.53;1265513;23;642;-67
2022/12/16 00:11:05;;;;;;;;;;;;;;;11.61;67.54;100656.47;1265543;23;661;-67
2022/12/16 00:11:56;;;;;;;;;;;;;;;11.64;67.52;100653.59;1265336;23;634;-67
2022/12/16 00:12:46;;;;;;;;;;;;;;;11.64;67.22;100650.94;1265620;23;634;-67
2022/12/16 00:13:37;;;;;;;;;;;;;;;11.62;67.69;100647.50;1259374;23;638;-67
2022/12/16 00:14:28;;;;;;;;;;;;;;;11.61;67.96;100656.47;1260962;23;685;-67
2022/12/16 00:15:18;;;;;;;;;;;;;;;11.59;67.82;100653.91;1267199;23;1885;-67
2022/12/16 00:16:08;;;;;;;;;;;;;;;11.61;67.20;100651.16;1265824;23;645;-68
2022/12/16 00:16:59;;;;;;;;;;;;;;;11.60;67.34;100652.97;1265389;23;682;-67
2022/12/16 00:17:49;;;;;;;;;;;;;;;11.61;67.13;100653.81;1265731;23;669;-68
2022/12/16 00:18:40;;;;;;;;;;;;;;;11.60;68.17;100660.13;1265959;23;610;-67
2022/12/16 00:19:30;;;;;;;;;;;;;;;11.57;67.99;100655.00;1265597;23;654;-67
2022/12/16 00:20:20;;;;;;;;;;;;;;;11.56;67.49;100647.94;1265764;23;615;-67
2022/12/16 00:21:11;;;;;;;;;;;;;;;11.55;67.38;100652.44;1265501;23;637;-68
2022/12/16 00:22:01;;;;;;;;;;;;;;;11.55;67.64;100649.75;1265700;23;748;-68
2022/12/16 00:22:52;;;;;;;;;;;;;;;11.55;67.92;100647.09;1265480;23;614;-68
2022/12/16 00:23:42;;;;;;;;;;;;;;;11.57;68.10;100655.84;1265604;23;661;-68
2022/12/16 00:24:33;;;;;;;;;;;;;;;11.55;68.26;100648.91;1265786;23;626;-68
2022/12/16 00:25:23;;;;;;;;;;;;;;;11.55;68.17;100660.44;1265684;23;594;-68
2022/12/16 00:26:13;;;;;;;;;;;;;;;11.52;68.22;100649.97;1265653;23;633;-68
2022/12/16 00:27:04;;;;;;;;;;;;;;;11.54;67.25;100661.41;1265535;23;646;-67
2022/12/16 00:27:54;;;;;;;;;;;;;;;11.55;67.55;100652.44;1265633;23;645;-67
2022/12/16 00:28:45;;;;;;;;;;;;;;;11.53;68.08;100650.84;1265782;23;657;-68
2022/12/16 00:29:35;;;;;;;;;;;;;;;11.54;67.70;100660.53;1265508;23;1000;-67
2022/12/16 00:30:26;;;;;;;;;;;;;;;11.52;68.03;100665.13;1265832;23;673;-68
2022/12/16 00:31:16;;;;;;;;;;;;;;;11.51;68.05;100666.09;1265653;23;662;-68
2022/12/16 00:32:07;;;;;;;;;;;;;;;11.51;68.36;100661.63;1265657;23;658;-68
2022/12/16 00:32:57;;;;;;;;;;;;;;;11.53;67.63;100669.50;1265476;23;654;-68
2022/12/16 00:33:47;;;;;;;;;;;;;;;11.49;67.91;100664.38;1265661;23;662;-68
2022/12/16 00:34:38;;;;;;;;;;;;;;;11.52;68.15;100662.47;1265429;23;666;-68
2022/12/16 00:35:29;;;;;;;;;;;;;;;11.51;67.97;100660.75;1265516;23;1933;-68
2022/12/16 00:36:19;;;;;;;;;;;;;;;11.52;68.21;100662.47;1265633;23;669;-68
2022/12/16 00:37:10;;;;;;;;;;;;;;;11.53;67.82;100661.50;1265854;23;673;-68
2022/12/16 00:38:00;;;;;;;;;;;;;;;11.53;68.27;100664.16;1264824;23;630;-68
2022/12/16 00:38:51;;;;;;;;;;;;;;;11.53;67.32;100666.84;1265751;23;638;-68
2022/12/16 00:39:41;;;;;;;;;;;;;;;11.53;68.12;100666.84;1265507;23;618;-68
2022/12/16 00:40:31;;;;;;;;;;;;;;;11.54;68.22;100661.41;1265677;23;700;-68
2022/12/16 00:41:22;;;;;;;;;;;;;;;11.53;67.56;100650.84;1265266;23;650;-68
2022/12/16 00:42:12;;;;;;;;;;;;;;;11.53;67.90;100659.69;1265491;23;634;-68
2022/12/16 00:43:03;;;;;;;;;;;;;;;11.52;68.25;100660.66;1265784;23;689;-68
2022/12/16 00:43:53;;;;;;;;;;;;;;;11.52;68.00;100668.66;1265510;23;662;-68
2022/12/16 00:44:44;;;;;;;;;;;;;;;11.53;67.42;100661.50;1265732;23;661;-68
2022/12/16 00:45:34;;;;;;;;;;;;;;;11.52;68.12;100651.78;1267558;23;865;-68
2022/12/16 00:46:25;;;;;;;;;;;;;;;11.49;68.02;100659.06;1265570;23;641;-68
2022/12/16 00:47:15;;;;;;;;;;;;;;;11.47;67.81;100650.31;1265897;23;642;-69
2022/12/16 00:48:06;;;;;;;;;;;;;;;11.47;68.11;100662.78;1266194;23;610;-68
2022/12/16 00:48:56;;;;;;;;;;;;;;;11.45;68.47;100665.59;1265873;23;634;-68
2022/12/16 00:49:47;;;;;;;;;;;;;;;11.47;67.32;100660.97;1266135;23;678;-68
2022/12/16 00:50:37;;;;;;;;;;;;;;;11.48;68.04;100662.69;1265785;23;622;-68
2022/12/16 00:51:27;;;;;;;;;;;;;;;11.47;68.09;100665.44;1265916;23;681;-68
2022/12/16 00:52:18;;;;;;;;;;;;;;;11.48;68.33;100662.69;1266077;23;696;-68
2022/12/16 00:53:08;;;;;;;;;;;;;;;11.49;68.22;100668.88;1265632;23;1075;-68
2022/12/16 00:53:59;;;;;;;;;;;;;;;11.49;68.13;100669.72;1265972;23;685;-68
2022/12/16 00:54:49;;;;;;;;;;;;;;;11.49;67.45;100672.38;1265747;23;662;-67
2022/12/16 00:55:39;;;;;;;;;;;;;;;11.48;67.67;100662.69;1266006;23;677;-68
2022/12/16 00:56:30;;;;;;;;;;;;;;;11.45;68.39;100668.25;1259277;23;615;-68
2022/12/16 00:57:20;;;;;;;;;;;;;;;11.45;68.21;100678.94;1261229;23;638;-68
2022/12/16 00:58:11;;;;;;;;;;;;;;;11.46;68.17;100675.28;1267314;23;590;-68
2022/12/16 00:59:01;;;;;;;;;;;;;;;11.45;68.40;100678.09;1265766;23;665;-68
2022/12/16 00:59:52;;;;;;;;;;;;;;;11.45;68.24;100684.28;1265935;23;666;-68
2022/12/16 01:00:42;;;;;;;;;;;;;;;11.44;67.52;100687.91;1265867;23;677;-68
2022/12/16 01:01:32;;;;;;;;;;;;;;;11.45;67.58;100684.28;1266016;23;678;-67
2022/12/16 01:02:23;;;;;;;;;;;;;;;11.46;67.90;100688.63;1265852;23;669;-67
2022/12/16 01:03:13;;;;;;;;;;;;;;;11.50;67.70;100683.91;1265825;23;737;-68
2022/12/16 01:04:04;;;;;;;;;;;;;;;11.47;68.01;100687.66;1265999;23;618;-68
2022/12/16 01:04:54;;;;;;;;;;;;;;;11.47;68.09;100690.31;1265667;23;948;-68
2022/12/16 01:05:45;;;;;;;;;;;;;;;11.44;67.52;100693.25;1266082;23;669;-67
2022/12/16 01:06:35;;;;;;;;;;;;;;;11.46;68.50;100693.13;1265777;23;602;-67
2022/12/16 01:07:25;;;;;;;;;;;;;;;11.44;68.33;100695.91;1265751;23;685;-67
2022/12/16 01:08:16;;;;;;;;;;;;;;;11.44;68.38;100697.72;1265712;23;627;-67
2022/12/16 01:09:07;;;;;;;;;;;;;;;11.42;67.99;100695.16;1265898;23;677;-67
2022/12/16 01:09:57;;;;;;;;;;;;;;;11.46;67.64;100701.13;1265997;23;692;-67
2022/12/16 01:10:48;;;;;;;;;;;;;;;11.46;67.41;100707.28;1265748;23;874;-67
2022/12/16 01:11:38;;;;;;;;;;;;;;;11.45;68.24;100705.63;1265792;23;658;-67
2022/12/16 01:12:29;;;;;;;;;;;;;;;11.45;68.47;100702.94;1266088;23;630;-67
2022/12/16 01:13:19;;;;;;;;;;;;;;;11.44;68.20;100703.91;1265886;23;626;-67
2022/12/16 01:14:10;;;;;;;;;;;;;;;11.44;67.76;100698.56;1265989;23;639;-67
2022/12/16 01:15:00;;;;;;;;;;;;;;;11.42;67.90;100699.63;1265723;23;630;-68
2022/12/16 01:15:51;;;;;;;;;;;;;;;11.42;67.89;100703.16;1266015;23;646;-67
2022/12/16 01:16:41;;;;;;;;;;;;;;;11.43;67.79;100710.22;1265738;23;643;-70
2022/12/16 01:17:31;;;;;;;;;;;;;;;11.40;67.85;100710.41;1266069;23;724;-70
2022/12/16 01:18:22;;;;;;;;;;;;;;;11.43;68.23;100702.19;1265732;23;658;-70
2022/12/16 01:19:12;;;;;;;;;;;;;;;11.43;68.02;100696.88;1265793;23;622;-69
2022/12/16 01:20:03;;;;;;;;;;;;;;;11.43;67.57;100712.88;1259778;23;645;-70
2022/12/16 01:20:53;;;;;;;;;;;;;;;11.43;68.32;100714.69;1260945;23;673;-67
2022/12/16 01:21:44;;;;;;;;;;;;;;;11.42;67.54;100713.84;1267394;23;614;-69
2022/12/16 01:22:34;;;;;;;;;;;;;;;11.40;68.16;100715.75;1265806;23;970;-69
2022/12/16 01:23:24;;;;;;;;;;;;;;;11.41;68.38;100709.47;1265976;23;746;-69
2022/12/16 01:24:15;;;;;;;;;;;;;;;11.40;68.41;100718.44;1259234;23;654;-69
2022/12/16 01:25:05;;;;;;;;;;;;;;;11.39;67.64;100718.53;1261085;23;657;-69
2022/12/16 01:25:56;;;;;;;;;;;;;;;11.39;67.73;100716.72;1267302;23;685;-67
2022/12/16 01:26:46;;;;;;;;;;;;;;;11.40;68.13;100713.09;1265620;23;620;-69
2022/12/16 01:27:37;;;;;;;;;;;;;;;11.41;68.30;100721.94;1265981;23;626;-68
2022/12/16 01:28:27;;;;;;;;;;;;;;;11.40;67.85;100721.09;1265732;23;748;-69
2022/12/16 01:29:17;;;;;;;;;;;;;;;11.40;67.86;100723.75;1265685;23;610;-69
2022/12/16 01:30:08;;;;;;;;;;;;;;;11.40;68.56;100722.91;1265668;23;754;-67
2022/12/16 01:31:00;;;;;;;;;;;;;;;11.39;68.60;100721.19;1265924;23;702;-69
2022/12/16 01:31:50;;;;;;;;;;;;;;;11.41;67.52;100717.47;1265961;23;662;-69
2022/12/16 01:32:41;;;;;;;;;;;;;;;11.42;68.09;100726.31;1265733;23;666;-67
2022/12/16 01:33:31;;;;;;;;;;;;;;;11.42;67.68;100721.84;1265870;23;654;-69
2022/12/16 01:34:22;;;;;;;;;;;;;;;11.42;67.62;100720.97;1265647;23;630;-69
2022/12/16 01:35:13;;;;;;;;;;;;;;;11.41;67.63;100725.47;1267333;23;1953;-69
2022/12/16 01:36:03;;;;;;;;;;;;;;;11.39;67.72;100727.38;1265193;23;549;-69
2022/12/16 01:36:54;;;;;;;;;;;;;;;11.41;68.09;100732.63;1266036;23;630;-69
2022/12/16 01:37:44;;;;;;;;;;;;;;;11.40;68.15;100734.44;1265850;23;649;-67
2022/12/16 01:38:34;;;;;;;;;;;;;;;11.42;68.30;100726.31;1265916;23;760;-67
2022/12/16 01:39:26;;;;;;;;;;;;;;;11.40;68.21;100736.25;1265608;23;705;-69
2022/12/16 01:40:16;;;;;;;;;;;;;;;11.40;68.33;100737.09;1267417;23;649;-69
2022/12/16 01:41:07;;;;;;;;;;;;;;;11.39;67.59;100730.06;1265825;23;630;-67
2022/12/16 01:41:57;;;;;;;;;;;;;;;11.38;68.02;100740.84;1265741;23;599;-70
2022/12/16 01:42:48;;;;;;;;;;;;;;;11.39;68.39;100745.22;1265960;23;653;-69
2022/12/16 01:43:38;;;;;;;;;;;;;;;11.38;68.20;100741.69;1267460;23;685;-69
2022/12/16 01:44:29;;;;;;;;;;;;;;;11.39;67.83;100746.06;1265862;23;626;-70
2022/12/16 01:45:19;;;;;;;;;;;;;;;11.38;68.18;100743.50;1265725;23;623;-67
2022/12/16 01:46:10;;;;;;;;;;;;;;;11.38;67.94;100752.34;1267501;23;812;-69
2022/12/16 01:47:01;;;;;;;;;;;;;;;11.40;67.79;100744.25;1265814;23;635;-69
2022/12/16 01:47:51;;;;;;;;;;;;;;;11.37;67.96;100742.66;1267593;23;623;-69
2022/12/16 01:48:42;;;;;;;;;;;;;;;11.36;68.16;100748.09;1265849;23;603;-69
2022/12/16 01:49:32;;;;;;;;;;;;;;;11.36;68.41;100754.28;1265763;23;614;-69
2022/12/16 01:50:22;;;;;;;;;;;;;;;11.38;67.89;100744.34;1265212;23;665;-69
2022/12/16 01:51:13;;;;;;;;;;;;;;;11.38;68.27;100752.34;1266536;23;717;-69
2022/12/16 01:52:03;;;;;;;;;;;;;;;11.35;68.02;100749.03;1265821;23;635;-69
2022/12/16 01:52:54;;;;;;;;;;;;;;;11.37;68.39;100749.78;1265723;23;1058;-69
2022/12/16 01:53:44;;;;;;;;;;;;;;;11.36;68.35;100751.59;1265732;23;649;-69
2022/12/16 01:54:35;;;;;;;;;;;;;;;11.34;68.12;100750.84;1266674;23;643;-69
2022/12/16 01:55:25;;;;;;;;;;;;;;;11.36;67.96;100756.94;1265663;23;1928;-69
2022/12/16 01:56:15;;;;;;;;;;;;;;;11.36;67.84;100756.09;1265680;23;626;-69
2022/12/16 01:57:06;;;;;;;;;;;;;;;11.34;67.58;100750.84;1265666;23;669;-68
2022/12/16 01:57:56;;;;;;;;;;;;;;;11.34;68.15;100760.69;1265793;23;658;-69
2022/12/16 01:58:47;;;;;;;;;;;;;;;11.33;68.10;100756.28;1265962;23;633;-67
2022/12/16 01:59:37;;;;;;;;;;;;;;;11.36;67.96;100756.09;1265622;23;665;-69
2022/12/16 02:00:28;;;;;;;;;;;;;;;11.34;68.68;100764.19;1265973;23;678;-68
2022/12/16 02:01:18;;;;;;;;;;;;;;;11.34;68.10;100756.19;1265568;23;658;-69
2022/12/16 02:02:08;;;;;;;;;;;;;;;11.34;67.74;100766.88;1259369;23;617;-69
2022/12/16 02:02:59;;;;;;;;;;;;;;;11.35;68.38;100767.72;1261153;23;661;-69
2022/12/16 02:03:49;;;;;;;;;;;;;;;11.36;67.87;100764.94;1267330;23;653;-69
2022/12/16 02:05:19;;;;;;;;;;;;;;;11.36;68.03;100759.59;1259114;23;641;-69
2022/12/16 02:05:50;;;;;;;;;;;;;;;11.36;67.61;100764.09;1259189;23;705;-68
2022/12/16 02:06:41;;;;;;;;;;;;;;;11.33;68.44;100766.97;1265968;23;686;-69
2022/12/16 02:07:31;;;;;;;;;;;;;;;11.34;67.72;100766.88;1265595;23;618;-68
2022/12/16 02:08:22;;;;;;;;;;;;;;;11.33;68.25;100770.50;1265162;23;696;-69
2022/12/16 02:09:12;;;;;;;;;;;;;;;11.33;67.99;100772.31;1265645;23;614;-69
2022/12/16 02:10:03;;;;;;;;;;;;;;;11.33;68.44;100767.81;1265835;23;665;-69
2022/12/16 02:10:53;;;;;;;;;;;;;;;11.34;67.84;100772.19;1265725;23;610;-68
2022/12/16 02:11:44;;;;;;;;;;;;;;;11.33;67.76;100770.50;1265935;23;653;-68
2022/12/16 02:12:34;;;;;;;;;;;;;;;11.37;68.42;100774.66;1265646;23;666;-68
2022/12/16 02:13:24;;;;;;;;;;;;;;;11.36;68.63;100769.44;1265721;23;665;-68
2022/12/16 02:14:15;;;;;;;;;;;;;;;11.37;67.82;100771.13;1265583;23;626;-69
2022/12/16 02:15:05;;;;;;;;;;;;;;;11.35;68.35;100770.38;1265652;23;1944;-69
2022/12/16 02:15:56;;;;;;;;;;;;;;;11.35;67.89;100773.91;1265900;23;719;-69
2022/12/16 02:16:46;;;;;;;;;;;;;;;11.35;67.85;100773.91;1265562;23;657;-69
2022/12/16 02:17:37;;;;;;;;;;;;;;;11.34;68.40;100771.34;1265893;23;638;-69
2022/12/16 02:18:27;;;;;;;;;;;;;;;11.33;68.60;100774.97;1265755;23;665;-69
2022/12/16 02:19:17;;;;;;;;;;;;;;;11.33;68.45;100769.63;1265047;23;658;-68
2022/12/16 02:20:08;;;;;;;;;;;;;;;11.35;67.98;100768.56;1266435;23;740;-68
2022/12/16 02:20:58;;;;;;;;;;;;;;;11.34;68.58;100771.34;1265644;23;635;-69
2022/12/16 02:21:49;;;;;;;;;;;;;;;11.34;67.76;100774.00;1265950;23;642;-69
2022/12/16 02:22:39;;;;;;;;;;;;;;;11.33;68.13;100775.81;1265728;23;653;-69
2022/12/16 02:23:30;;;;;;;;;;;;;;;11.33;68.46;100781.16;1265883;23;677;-69
2022/12/16 02:24:20;;;;;;;;;;;;;;;11.34;68.33;100780.19;1265596;23;622;-69
2022/12/16 02:25:10;;;;;;;;;;;;;;;11.33;68.44;100773.16;1265642;23;653;-69
2022/12/16 02:26:01;;;;;;;;;;;;;;;11.34;67.78;100776.69;1266020;23;634;-69
2022/12/16 02:26:51;;;;;;;;;;;;;;;11.32;67.80;100783.94;1265711;23;614;-69
2022/12/16 02:27:42;;;;;;;;;;;;;;;11.34;68.18;100785.53;1265841;23;611;-69
2022/12/16 02:28:32;;;;;;;;;;;;;;;11.34;68.18;100782.00;1265560;23;623;-69
2022/12/16 02:29:22;;;;;;;;;;;;;;;11.33;67.96;100782.97;1265629;23;681;-69
2022/12/16 02:30:13;;;;;;;;;;;;;;;11.30;68.51;100781.38;1265537;23;661;-69
2022/12/16 02:31:03;;;;;;;;;;;;;;;11.29;68.50;100782.31;1265578;23;666;-69
2022/12/16 02:31:54;;;;;;;;;;;;;;;11.31;68.48;100780.41;1265918;23;618;-69
2022/12/16 02:32:44;;;;;;;;;;;;;;;11.32;68.01;100781.25;1265717;23;618;-69
2022/12/16 02:33:35;;;;;;;;;;;;;;;11.34;67.88;100784.69;1265913;23;693;-69
2022/12/16 02:34:25;;;;;;;;;;;;;;;11.32;67.78;100789.25;1266438;23;704;-69
2022/12/16 02:35:15;;;;;;;;;;;;;;;11.33;68.37;100791.84;1265658;23;1923;-69
2022/12/16 02:36:06;;;;;;;;;;;;;;;11.33;68.47;100790.97;1265853;23;626;-70
2022/12/16 02:36:56;;;;;;;;;;;;;;;11.32;67.93;100784.78;1265618;23;638;-69
2022/12/16 02:37:47;;;;;;;;;;;;;;;11.34;67.67;100790.03;1265780;23;635;-69
2022/12/16 02:38:37;;;;;;;;;;;;;;;11.34;68.13;100788.22;1265705;23;622;-69
2022/12/16 02:39:28;;;;;;;;;;;;;;;11.33;68.06;100794.50;1265934;23;947;-69
2022/12/16 02:40:18;;;;;;;;;;;;;;;11.32;68.34;100792.78;1265570;23;654;-69
2022/12/16 02:41:09;;;;;;;;;;;;;;;11.34;68.41;100782.88;1265821;23;701;-70
2022/12/16 02:41:59;;;;;;;;;;;;;;;11.33;68.39;100788.31;1265468;23;658;-70
2022/12/16 02:42:49;;;;;;;;;;;;;;;11.31;68.43;100787.56;1265446;23;556;-69
2022/12/16 02:43:40;;;;;;;;;;;;;;;11.32;67.96;100795.47;1265737;23;661;-69
2022/12/16 02:44:30;;;;;;;;;;;;;;;11.31;67.77;100793.75;1265517;23;610;-69
2022/12/16 02:45:21;;;;;;;;;;;;;;;11.34;68.40;100788.22;1265573;23;596;-69
2022/12/16 02:46:11;;;;;;;;;;;;;;;11.31;68.03;100788.41;1265114;23;634;-69
2022/12/16 02:47:01;;;;;;;;;;;;;;;11.32;67.94;100790.13;1265493;23;649;-70
2022/12/16 02:47:52;;;;;;;;;;;;;;;11.33;68.57;100797.16;1265786;23;700;-69
2022/12/16 02:48:42;;;;;;;;;;;;;;;11.32;68.16;100795.47;1265696;23;622;-69
2022/12/16 02:49:33;;;;;;;;;;;;;;;11.32;68.67;100800.78;1265697;23;658;-69
2022/12/16 02:50:23;;;;;;;;;;;;;;;11.32;67.58;100794.59;1265392;23;591;-69
2022/12/16 02:51:14;;;;;;;;;;;;;;;11.31;67.94;100798.22;1265455;23;670;-69
2022/12/16 02:52:04;;;;;;;;;;;;;;;11.31;67.80;100787.56;1265361;23;627;-69
2022/12/16 02:52:54;;;;;;;;;;;;;;;11.32;67.93;100800.78;1258996;23;1311;-68
2022/12/16 02:53:45;;;;;;;;;;;;;;;11.28;68.56;100798.47;1259342;23;673;-68
2022/12/16 02:54:36;;;;;;;;;;;;;;;11.30;67.96;100807.19;1264699;23;833;-69
2022/12/16 02:55:26;;;;;;;;;;;;;;;11.31;68.33;100799.09;1267066;23;1905;-68
2022/12/16 02:56:17;;;;;;;;;;;;;;;11.30;68.17;100794.69;1265547;23;615;-69
2022/12/16 02:57:08;;;;;;;;;;;;;;;11.28;67.99;100802.00;1267238;23;801;-69
2022/12/16 02:57:58;;;;;;;;;;;;;;;11.29;67.60;100806.34;1265327;23;666;-69
2022/12/16 02:58:48;;;;;;;;;;;;;;;11.31;68.22;100799.09;1265457;23;709;-69
2022/12/16 02:59:39;;;;;;;;;;;;;;;11.32;68.25;100805.28;1265746;23;615;-69
2022/12/16 03:00:29;;;;;;;;;;;;;;;11.32;68.62;100799.94;1265353;23;594;-69
2022/12/16 03:01:20;;;;;;;;;;;;;;;11.32;68.17;100805.28;1265745;23;661;-69
2022/12/16 03:02:11;;;;;;;;;;;;;;;11.30;68.05;100810.72;1265357;23;618;-69
2022/12/16 03:03:01;;;;;;;;;;;;;;;11.28;68.68;100807.31;1266696;23;642;-69
2022/12/16 03:03:52;;;;;;;;;;;;;;;11.31;67.59;100807.09;1265510;23;665;-69
2022/12/16 03:04:42;;;;;;;;;;;;;;;11.30;67.95;100813.38;1267262;23;708;-69
2022/12/16 03:05:33;;;;;;;;;;;;;;;11.31;68.01;100809.75;1265833;23;685;-69
2022/12/16 03:06:23;;;;;;;;;;;;;;;11.29;67.65;100810.81;1265268;23;626;-69
2022/12/16 03:07:14;;;;;;;;;;;;;;;11.29;68.10;100817.00;1265594;23;640;-69
2022/12/16 03:08:04;;;;;;;;;;;;;;;11.30;67.92;100816.03;1265281;23;637;-69
2022/12/16 03:08:54;;;;;;;;;;;;;;;11.28;68.47;100810.00;1265438;23;677;-69
2022/12/16 03:09:45;;;;;;;;;;;;;;;11.30;68.44;100816.03;1265670;23;674;-69
2022/12/16 03:10:36;;;;;;;;;;;;;;;11.28;68.31;100814.47;1267376;23;665;-69
2022/12/16 03:11:26;;;;;;;;;;;;;;;11.27;67.98;100818.09;1265421;23;662;-69
2022/12/16 03:12:16;;;;;;;;;;;;;;;11.24;68.83;100824.50;1265464;23;606;-69
2022/12/16 03:13:07;;;;;;;;;;;;;;;11.23;68.28;100817.44;1265662;23;642;-68
2022/12/16 03:13:57;;;;;;;;;;;;;;;11.24;68.10;100823.63;1265449;23;614;-71
2022/12/16 03:14:48;;;;;;;;;;;;;;;11.27;68.46;100826.97;1265619;23;902;-68
2022/12/16 03:15:38;;;;;;;;;;;;;;;11.26;68.57;100833.25;1265442;23;602;-68
2022/12/16 03:16:29;;;;;;;;;;;;;;;11.28;67.85;100831.34;1265571;23;669;-69
2022/12/16 03:17:19;;;;;;;;;;;;;;;11.27;68.33;100829.63;1258380;23;626;-69
2022/12/16 03:18:09;;;;;;;;;;;;;;;11.27;68.44;100832.28;1260592;23;670;-69
2022/12/16 03:19:00;;;;;;;;;;;;;;;11.27;68.55;100837.63;1267055;23;646;-69
2022/12/16 03:19:50;;;;;;;;;;;;;;;11.27;68.18;100839.44;1265266;23;614;-68
2022/12/16 03:20:41;;;;;;;;;;;;;;;11.27;68.00;100834.97;1259185;23;609;-68
2022/12/16 03:21:31;;;;;;;;;;;;;;;11.28;68.72;100838.47;1258001;23;611;-68
2022/12/16 03:22:22;;;;;;;;;;;;;;;11.27;68.79;100839.44;1267003;23;704;-68
2022/12/16 03:23:12;;;;;;;;;;;;;;;11.27;68.10;100836.78;1265354;23;615;-69
2022/12/16 03:24:03;;;;;;;;;;;;;;;11.26;68.53;100838.59;1265404;23;930;-68
2022/12/16 03:24:53;;;;;;;;;;;;;;;11.25;67.94;100834.19;1265649;23;673;-68
2022/12/16 03:25:43;;;;;;;;;;;;;;;11.23;68.36;100840.59;1265406;23;650;-69
2022/12/16 03:26:34;;;;;;;;;;;;;;;11.22;68.55;100839.75;1265659;23;637;-68
2022/12/16 03:27:24;;;;;;;;;;;;;;;11.22;68.18;100845.06;1265265;23;678;-68
2022/12/16 03:28:15;;;;;;;;;;;;;;;11.23;67.84;100852.13;1265701;23;627;-68
2022/12/16 03:29:05;;;;;;;;;;;;;;;11.22;68.30;100850.41;1265143;23;634;-68
2022/12/16 03:29:56;;;;;;;;;;;;;;;11.24;68.50;100850.31;1265419;23;677;-68
2022/12/16 03:30:46;;;;;;;;;;;;;;;11.23;68.14;100841.44;1265272;23;623;-68
2022/12/16 03:31:37;;;;;;;;;;;;;;;11.22;68.25;100846.88;1265608;23;705;-68
2022/12/16 03:32:27;;;;;;;;;;;;;;;11.21;68.34;100854.03;1265143;23;712;-68
2022/12/16 03:33:17;;;;;;;;;;;;;;;11.24;68.32;100853.84;1265473;23;713;-68
2022/12/16 03:34:09;;;;;;;;;;;;;;;11.25;68.43;100844.03;1265513;23;639;-68
2022/12/16 03:34:59;;;;;;;;;;;;;;;11.24;67.81;100853.84;1267063;23;653;-68
2022/12/16 03:35:50;;;;;;;;;;;;;;;11.20;68.16;100855.00;1265617;23;658;-69
2022/12/16 03:36:40;;;;;;;;;;;;;;;11.22;68.18;100855.75;1265356;23;661;-68
2022/12/16 03:37:31;;;;;;;;;;;;;;;11.22;67.91;100861.06;1265754;23;629;-68
2022/12/16 03:38:21;;;;;;;;;;;;;;;11.23;67.94;100854.78;1265564;23;634;-68
2022/12/16 03:39:13;;;;;;;;;;;;;;;11.21;68.53;100859.38;1265359;23;670;-68
2022/12/16 03:40:03;;;;;;;;;;;;;;;11.21;68.14;100856.69;1267168;23;617;-68
2022/12/16 03:40:54;;;;;;;;;;;;;;;11.20;68.76;100863.00;1265599;23;673;-68
2022/12/16 03:41:44;;;;;;;;;;;;;;;11.22;68.60;100865.56;1265485;23;630;-68
2022/12/16 03:42:35;;;;;;;;;;;;;;;11.22;68.19;100860.22;1259300;23;693;-68
2022/12/16 03:43:25;;;;;;;;;;;;;;;11.21;68.59;100864.69;1259121;23;657;-68
2022/12/16 03:44:16;;;;;;;;;;;;;;;11.23;68.44;100862.78;1266966;23;625;-68
2022/12/16 03:45:07;;;;;;;;;;;;;;;11.23;68.13;100862.78;1265449;23;598;-68
2022/12/16 03:45:58;;;;;;;;;;;;;;;11.23;68.27;100870.78;1267134;23;673;-68
2022/12/16 03:46:48;;;;;;;;;;;;;;;11.22;68.53;100874.41;1267142;23;618;-68
2022/12/16 03:47:39;;;;;;;;;;;;;;;11.19;67.90;100863.94;1265689;23;643;-68
2022/12/16 03:48:29;;;;;;;;;;;;;;;11.19;68.13;100868.44;1265326;23;656;-69
2022/12/16 03:49:20;;;;;;;;;;;;;;;11.19;68.15;100863.94;1265846;23;661;-68
2022/12/16 03:50:10;;;;;;;;;;;;;;;11.19;68.76;100876.44;1265062;23;634;-68
2022/12/16 03:51:01;;;;;;;;;;;;;;;11.18;68.41;100867.56;1265563;23;704;-68
2022/12/16 03:51:51;;;;;;;;;;;;;;;11.19;68.64;100869.28;1258802;23;685;-68
2022/12/16 03:52:42;;;;;;;;;;;;;;;11.20;68.62;100865.66;1258389;23;625;-68
2022/12/16 03:53:32;;;;;;;;;;;;;;;11.20;68.75;100871.00;1266892;23;674;-69
2022/12/16 03:54:23;;;;;;;;;;;;;;;11.21;68.05;100872.72;1265507;23;613;-69
2022/12/16 03:55:13;;;;;;;;;;;;;;;11.21;68.55;100871.84;1267076;23;1905;-69
2022/12/16 03:56:04;;;;;;;;;;;;;;;11.20;68.54;100876.31;1265461;23;621;-69
2022/12/16 03:56:54;;;;;;;;;;;;;;;11.18;68.51;100877.38;1265605;23;645;-69
2022/12/16 03:57:44;;;;;;;;;;;;;;;11.18;68.88;100878.25;1265432;23;637;-68
2022/12/16 03:58:36;;;;;;;;;;;;;;;11.19;68.06;100879.94;1265675;23;646;-69
2022/12/16 03:59:27;;;;;;;;;;;;;;;11.19;68.19;100884.44;1267202;23;653;-69
2022/12/16 04:00:17;;;;;;;;;;;;;;;11.19;68.34;100876.44;1265395;23;599;-69
2022/12/16 04:01:08;;;;;;;;;;;;;;;11.17;68.20;100870.34;1264970;23;852;-69
2022/12/16 04:01:58;;;;;;;;;;;;;;;11.15;68.70;100875.78;1265324;23;638;-68
2022/12/16 04:02:49;;;;;;;;;;;;;;;11.14;68.52;100879.41;1265645;23;642;-69
2022/12/16 04:03:39;;;;;;;;;;;;;;;11.14;68.38;100876.72;1265385;23;634;-69
2022/12/16 04:04:30;;;;;;;;;;;;;;;11.15;68.56;100878.44;1265685;23;739;-70
2022/12/16 04:05:20;;;;;;;;;;;;;;;11.17;68.40;100870.34;1265292;23;603;-69
2022/12/16 04:06:11;;;;;;;;;;;;;;;11.16;68.23;100880.16;1265398;23;658;-68
2022/12/16 04:07:19;;;;;;;;;;;;;;;11.17;67.80;100883.69;1265629;23;670;-68
2022/12/16 04:08:10;;;;;;;;;;;;;;;11.19;68.58;100887.94;1265484;23;567;-69
2022/12/16 04:09:00;;;;;;;;;;;;;;;11.19;68.11;100884.44;1265340;23;657;-69
2022/12/16 04:09:51;;;;;;;;;;;;;;;11.19;67.93;100887.94;1265566;23;654;-69
2022/12/16 04:24:31;;;;;;;;;;;;;;;11.16;68.74;100897.97;1264210;23;659;-69
2022/12/16 04:25:22;;;;;;;;;;;;;;;11.17;68.09;100905.88;1265880;23;686;-69
2022/12/16 04:26:12;;;;;;;;;;;;;;;11.17;68.54;100908.53;1265665;23;697;-69
2022/12/16 04:28:12;;;;;;;;;;;;;;;11.14;68.31;100903.41;1264290;23;646;-68
2022/12/16 04:29:02;;;;;;;;;;;;;;;11.12;68.39;100900.84;1266396;23;658;-68
2022/12/16 04:31:02;;;;;;;;;;;;;;;11.12;69.04;100897.31;1264442;23;713;-68
2022/12/16 04:31:52;;;;;;;;;;;;;;;11.12;68.34;100895.50;1265554;23;742;-68
